Airfield :
LOGIN :

Register | Disclaimer

   EN    FR    IT 

 










Legend :    VFR   Marginal VFR   IFR   Intensive IFR   Very Intensive IFR
Visi :
Ceiling :
>= 8 km
>= 3000ft
5 to 8 km
1000 to 3000 ft
1500m to 5 km
500 to 1000 ft
800 to 1500m
200 to 500 ft
< 800m
< 200 ft
Symbols :   Thunderstorms  Fog  Heavy snow  Heavy precipitations  Wind > 20 kt
SIGMETs :     Misc.  Thunderstorms  Icing  Turbulence  Mountain Waves  Volcanic Ashes







- Airport Elevation : 1247 ft
- IATA code : PRG


LKPR - Praha Ruzyne

CURRENT METAR :
  • 211130Z 23016KT CAVOK 29/15 Q1011 TEMPO 25016G26KT

EXPIRED METARs :
  • 211100Z 23017KT CAVOK 29/16 Q1011 TEMPO 25016G26KT
  • 211030Z 23014KT CAVOK 28/15 Q1012 NOSIG
  • 211000Z 23016KT CAVOK 27/15 Q1012 NOSIG
  • 210930Z 23015KT 9999 FEW048 27/15 Q1012 NOSIG
  • 210900Z 23014KT 9999 FEW045 27/15 Q1013 NOSIG

TAF TAF LKPR
Valid from the 21 at 12:00 until the 22 at 18:00 UTC


211100Z 2112/2218 25018KT CAVOK
TEMPO 2112/2115 27020G40KT SHRA SCT040CB
PROB30
TEMPO 2113/2115 30026G46KT 4000 TSRA SCT030CB
BECMG 2115/2117 33020G36KT
BECMG 2118/2121 29012KT
TEMPO 2210/2218 27016G28KT 7000 SHRA SCT035TCU
PROB30
TEMPO 2212/2218 30022G36KT 4000 TSRA SCT025CB BKN035
No reported NOTAMs for that airfield.



MET'MAP, your aeronautical weather chart ! - Copyright ORBIFLY December 2007 - Disclaimer

ORBIFLY MET'MAP TEAM :

Programming & Development : Alexandra Zaïnal
Concept & Development : Baudouin d'Aumeries
Co-Development & Prog : Marc-Olivier Méhu
Technical & hardware support : Manuel Goepfert

Contact : metmap@orbifly.com




SOURCES & CREDITS :

   NOAA